Aktualna pogoda na lotniskach (dane METAR)

 

EPGD - Gdansk/Rebiechow, Poland
Distance from station: ENE 44km
Updated: Tue, 19-Jun-2018 04:00 CEST
Clear
Clear
 Wind from varies
Wiatr: varies 4 km/h
Temperatura: 15°C
Punkt Rosy: 12°C
Wilgotność: 82%
Ciśnienie: 1017 hPa
Ogólnie: Clear
Widzialność: greater than 10 km
2018/06/19 02:00 EPGD 190200Z VRB02KT CAVOK 15/12 Q1017
EPSC - Szczecin/Golenio, Poland
Distance from station: WSW 205km
Updated: Tue, 19-Jun-2018 04:00 CEST
Few Clouds
Few Clouds
 Wind from SW
Wiatr: SW 6 km/h
Temperatura: 18°C
Punkt Rosy: 13°C
Wilgotność: 73%
Ciśnienie: 1017 hPa
Zachmurzenie: Few Clouds
Widzialność: 10 km
Szczegóły zachm.: Few Clouds 1219 m
2018/06/19 02:00 EPSC 190200Z 22003KT 170V260 9999 FEW040 18/13 Q1017
 
EPPO - Poznan/Lawica, Poland
Distance from station: SSW 210km
Updated: Tue, 19-Jun-2018 04:00 CEST
Clear
Clear
 Wind from SSW
Wiatr: SSW 7 km/h
Temperatura: 17°C
Punkt Rosy: 12°C
Wilgotność: 73%
Ciśnienie: 1019 hPa
Ogólnie: Clear
Widzialność: greater than 10 km
2018/06/19 02:00 EPPO 190200Z 21004KT CAVOK 17/12 Q1019
EPLL - Lodz/Lublinek, Poland
Distance from station: SSE 296km
Updated: Tue, 19-Jun-2018 04:00 CEST
Clear
Clear
 Wind from NNE
Wiatr: NNE 2 km/h
Temperatura: 13°C
Punkt Rosy: 11°C
Wilgotność: 88%
Ciśnienie: 1019 hPa
Ogólnie: Clear
Widzialność: greater than 10 km
2018/06/19 02:00 EPLL 190200Z 03001KT CAVOK 13/11 Q1019
 
EPWA - Warsaw/Okecie, Poland
Distance from station: SE 307km
Updated: Tue, 19-Jun-2018 04:00 CEST
Clear
Clear
 Wind from NNW
Wiatr: NNW 4 km/h
Temperatura: 17°C
Punkt Rosy: 15°C
Wilgotność: 88%
Ciśnienie: 1018 hPa
Ogólnie: Clear
Widzialność: greater than 10 km
2018/06/19 02:00 EPWA 190200Z 33002KT CAVOK 17/15 Q1018 NOSIG
EPWR - Wroclaw/Strachow, Poland
Distance from station: S 352km
Updated: Tue, 19-Jun-2018 04:00 CEST
Clear
Clear
 Wind from SW
Wiatr: SW 2 km/h
Temperatura: 15°C
Punkt Rosy: 11°C
Wilgotność: 77%
Ciśnienie: 1020 hPa
Ogólnie: Clear
Widzialność: greater than 10 km
2018/06/19 02:00 EPWR 190200Z 23001KT CAVOK 15/11 Q1020

Metar display script from Saratoga-Weather.org